sensor_id;sensor_type;location;lat;lon;timestamp;pressure;altitude;pressure_sealevel;temperature;humidity
30516;BME280;17297;54.022;10.760;2024-03-22T00:01:04;101816.16;;;11.60;66.80
30516;BME280;17297;54.022;10.760;2024-03-22T00:03:30;101812.63;;;11.60;66.79
30516;BME280;17297;54.022;10.760;2024-03-22T00:05:55;101807.22;;;11.60;66.84
30516;BME280;17297;54.022;10.760;2024-03-22T00:08:20;101804.34;;;11.61;66.97
30516;BME280;17297;54.022;10.760;2024-03-22T00:10:46;101792.72;;;11.61;66.85
30516;BME280;17297;54.022;10.760;2024-03-22T00:13:11;101775.72;;;11.60;66.82
30516;BME280;17297;54.022;10.760;2024-03-22T00:15:36;101776.41;;;11.62;66.96
30516;BME280;17297;54.022;10.760;2024-03-22T00:18:02;101769.16;;;11.63;66.94
30516;BME280;17297;54.022;10.760;2024-03-22T00:20:27;101764.75;;;11.62;66.95
30516;BME280;17297;54.022;10.760;2024-03-22T00:22:53;101757.53;;;11.62;66.90
30516;BME280;17297;54.022;10.760;2024-03-22T00:25:18;101748.59;;;11.62;66.90
30516;BME280;17297;54.022;10.760;2024-03-22T00:27:43;101745.06;;;11.61;67.02
30516;BME280;17297;54.022;10.760;2024-03-22T00:30:09;101740.50;;;11.62;66.81
30516;BME280;17297;54.022;10.760;2024-03-22T00:32:34;101735.97;;;11.62;67.08
30516;BME280;17297;54.022;10.760;2024-03-22T00:35:00;101745.72;;;11.63;66.95
30516;BME280;17297;54.022;10.760;2024-03-22T00:37:25;101734.13;;;11.63;66.69
30516;BME280;17297;54.022;10.760;2024-03-22T00:39:50;101738.66;;;11.62;67.00
30516;BME280;17297;54.022;10.760;2024-03-22T00:42:16;101735.09;;;11.62;67.03
30516;BME280;17297;54.022;10.760;2024-03-22T00:44:41;101730.59;;;11.62;66.87
30516;BME280;17297;54.022;10.760;2024-03-22T00:47:06;101721.63;;;11.62;67.09
30516;BME280;17297;54.022;10.760;2024-03-22T00:49:32;101715.25;;;11.63;66.94
30516;BME280;17297;54.022;10.760;2024-03-22T00:51:57;101698.25;;;11.62;67.15
30516;BME280;17297;54.022;10.760;2024-03-22T00:54:23;101692.84;;;11.62;67.13
30516;BME280;17297;54.022;10.760;2024-03-22T00:56:48;101687.47;;;11.62;67.15
30516;BME280;17297;54.022;10.760;2024-03-22T00:59:13;101683.91;;;11.62;67.12
30516;BME280;17297;54.022;10.760;2024-03-22T01:01:39;101682.91;;;11.63;67.08
30516;BME280;17297;54.022;10.760;2024-03-22T01:04:04;101687.47;;;11.62;67.09
30516;BME280;17297;54.022;10.760;2024-03-22T01:06:29;101696.38;;;11.63;67.21
30516;BME280;17297;54.022;10.760;2024-03-22T01:08:54;101696.38;;;11.63;66.97
30516;BME280;17297;54.022;10.760;2024-03-22T01:11:20;101682.91;;;11.63;67.12
30516;BME280;17297;54.022;10.760;2024-03-22T01:13:45;101684.78;;;11.62;67.26
30516;BME280;17297;54.022;10.760;2024-03-22T01:16:11;101675.66;;;11.63;66.98
30516;BME280;17297;54.022;10.760;2024-03-22T01:18:37;101670.28;;;11.63;67.21
30516;BME280;17297;54.022;10.760;2024-03-22T01:21:02;101663.84;;;11.64;67.19
30516;BME280;17297;54.022;10.760;2024-03-22T01:23:28;101647.69;;;11.64;67.28
30516;BME280;17297;54.022;10.760;2024-03-22T01:25:53;101635.03;;;11.65;67.16
30516;BME280;17297;54.022;10.760;2024-03-22T01:28:18;101626.13;;;11.64;67.24
30516;BME280;17297;54.022;10.760;2024-03-22T01:30:44;101623.25;;;11.66;67.18
30516;BME280;17297;54.022;10.760;2024-03-22T01:33:09;101616.19;;;11.65;67.13
30516;BME280;17297;54.022;10.760;2024-03-22T01:35:34;101612.47;;;11.66;67.18
30516;BME280;17297;54.022;10.760;2024-03-22T01:38:00;101610.63;;;11.66;67.30
30516;BME280;17297;54.022;10.760;2024-03-22T01:40:25;101608.94;;;11.65;67.36
30516;BME280;17297;54.022;10.760;2024-03-22T01:42:57;101614.34;;;11.65;67.28
30516;BME280;17297;54.022;10.760;2024-03-22T01:45:22;101622.22;;;11.67;67.31
30516;BME280;17297;54.022;10.760;2024-03-22T01:47:50;101616.00;;;11.66;67.37
30516;BME280;17297;54.022;10.760;2024-03-22T01:50:16;101612.28;;;11.67;67.19
30516;BME280;17297;54.022;10.760;2024-03-22T01:52:41;101611.28;;;11.68;67.23
30516;BME280;17297;54.022;10.760;2024-03-22T01:55:07;101604.88;;;11.69;67.47
30516;BME280;17297;54.022;10.760;2024-03-22T01:57:33;101598.66;;;11.69;67.36
30516;BME280;17297;54.022;10.760;2024-03-22T01:59:59;101598.66;;;11.69;67.27
30516;BME280;17297;54.022;10.760;2024-03-22T02:02:25;101600.16;;;11.71;67.40
30516;BME280;17297;54.022;10.760;2024-03-22T02:04:51;101588.50;;;11.71;67.50
30516;BME280;17297;54.022;10.760;2024-03-22T02:07:16;101598.28;;;11.72;67.58
30516;BME280;17297;54.022;10.760;2024-03-22T02:09:42;101591.03;;;11.72;67.42
30516;BME280;17297;54.022;10.760;2024-03-22T02:12:08;101592.69;;;11.73;67.34
30516;BME280;17297;54.022;10.760;2024-03-22T02:14:34;101585.44;;;11.74;67.52
30516;BME280;17297;54.022;10.760;2024-03-22T02:16:59;101584.44;;;11.75;67.49
30516;BME280;17297;54.022;10.760;2024-03-22T02:19:24;101583.44;;;11.76;67.52
30516;BME280;17297;54.022;10.760;2024-03-22T02:21:50;101585.94;;;11.77;67.63
30516;BME280;17297;54.022;10.760;2024-03-22T02:24:15;101582.41;;;11.77;67.55
30516;BME280;17297;54.022;10.760;2024-03-22T02:26:40;101584.09;;;11.78;67.31
30516;BME280;17297;54.022;10.760;2024-03-22T02:29:06;101581.41;;;11.78;67.39
30516;BME280;17297;54.022;10.760;2024-03-22T02:31:31;101567.91;;;11.78;67.57
30516;BME280;17297;54.022;10.760;2024-03-22T02:33:58;101554.44;;;11.78;67.57
30516;BME280;17297;54.022;10.760;2024-03-22T02:36:23;101548.03;;;11.79;67.47
30516;BME280;17297;54.022;10.760;2024-03-22T02:38:48;101538.06;;;11.79;67.64
30516;BME280;17297;54.022;10.760;2024-03-22T02:41:14;101539.75;;;11.80;67.61
30516;BME280;17297;54.022;10.760;2024-03-22T02:43:39;101537.91;;;11.81;67.70
30516;BME280;17297;54.022;10.760;2024-03-22T02:46:04;101531.47;;;11.82;67.72
30516;BME280;17297;54.022;10.760;2024-03-22T02:48:30;101524.22;;;11.83;67.60
30516;BME280;17297;54.022;10.760;2024-03-22T02:50:57;101522.38;;;11.83;67.64
30516;BME280;17297;54.022;10.760;2024-03-22T02:53:22;101524.94;;;11.85;67.61
30516;BME280;17297;54.022;10.760;2024-03-22T02:55:48;101514.97;;;11.85;67.66
30516;BME280;17297;54.022;10.760;2024-03-22T02:58:13;101505.03;;;11.86;67.79
30516;BME280;17297;54.022;10.760;2024-03-22T03:00:39;101508.56;;;11.86;67.72
30516;BME280;17297;54.022;10.760;2024-03-22T03:03:07;101506.69;;;11.87;67.59
30516;BME280;17297;54.022;10.760;2024-03-22T03:05:32;101503.81;;;11.88;67.38
30516;BME280;17297;54.022;10.760;2024-03-22T03:07:58;101496.56;;;11.89;67.66
30516;BME280;17297;54.022;10.760;2024-03-22T03:10:24;101497.41;;;11.89;67.66
30516;BME280;17297;54.022;10.760;2024-03-22T03:12:49;101487.44;;;11.90;67.75
30516;BME280;17297;54.022;10.760;2024-03-22T03:15:15;101489.97;;;11.91;67.62
30516;BME280;17297;54.022;10.760;2024-03-22T03:17:41;101492.69;;;11.91;67.55
30516;BME280;17297;54.022;10.760;2024-03-22T03:20:07;101488.94;;;11.92;67.73
30516;BME280;17297;54.022;10.760;2024-03-22T03:22:39;101487.09;;;11.93;67.73
30516;BME280;17297;54.022;10.760;2024-03-22T03:25:05;101488.94;;;11.92;67.66
30516;BME280;17297;54.022;10.760;2024-03-22T03:27:30;101486.09;;;11.94;67.59
30516;BME280;17297;54.022;10.760;2024-03-22T03:29:55;101473.44;;;11.94;67.55
30516;BME280;17297;54.022;10.760;2024-03-22T03:32:21;101470.53;;;11.96;67.56
30516;BME280;17297;54.022;10.760;2024-03-22T03:34:46;101470.53;;;11.96;67.70
30516;BME280;17297;54.022;10.760;2024-03-22T03:37:11;101465.81;;;11.98;67.77
30516;BME280;17297;54.022;10.760;2024-03-22T03:39:37;101460.41;;;11.98;67.75
30516;BME280;17297;54.022;10.760;2024-03-22T03:42:02;101461.25;;;11.98;67.56
30516;BME280;17297;54.022;10.760;2024-03-22T03:44:27;101455.69;;;12.00;67.81
30516;BME280;17297;54.022;10.760;2024-03-22T03:46:53;101448.44;;;12.00;67.73
30516;BME280;17297;54.022;10.760;2024-03-22T03:49:18;101439.31;;;12.01;67.53
30516;BME280;17297;54.022;10.760;2024-03-22T03:51:43;101438.31;;;12.02;67.74
30516;BME280;17297;54.022;10.760;2024-03-22T03:54:09;101438.31;;;12.02;67.67
30516;BME280;17297;54.022;10.760;2024-03-22T03:56:34;101421.09;;;12.04;67.63
30516;BME280;17297;54.022;10.760;2024-03-22T03:58:59;101424.44;;;12.06;67.81
30516;BME280;17297;54.022;10.760;2024-03-22T04:01:25;101419.88;;;12.06;67.75
30516;BME280;17297;54.022;10.760;2024-03-22T04:03:50;101415.31;;;12.07;67.73
30516;BME280;17297;54.022;10.760;2024-03-22T04:06:15;101421.38;;;12.09;67.71
30516;BME280;17297;54.022;10.760;2024-03-22T04:08:40;101412.44;;;12.08;67.68
30516;BME280;17297;54.022;10.760;2024-03-22T04:11:06;101394.41;;;12.09;67.87
30516;BME280;17297;54.022;10.760;2024-03-22T04:13:31;101388.81;;;12.10;67.64
30516;BME280;17297;54.022;10.760;2024-03-22T04:15:59;101387.16;;;12.09;67.71
30516;BME280;17297;54.022;10.760;2024-03-22T04:18:25;101381.56;;;12.11;67.84
30516;BME280;17297;54.022;10.760;2024-03-22T04:20:57;101395.03;;;12.11;67.89
30516;BME280;17297;54.022;10.760;2024-03-22T04:23:24;101381.56;;;12.11;67.77
30516;BME280;17297;54.022;10.760;2024-03-22T04:25:57;101378.88;;;12.11;67.83
30516;BME280;17297;54.022;10.760;2024-03-22T04:28:27;101378.88;;;12.11;67.92
30516;BME280;17297;54.022;10.760;2024-03-22T04:33:24;101366.03;;;12.13;67.92
30516;BME280;17297;54.022;10.760;2024-03-22T04:35:50;101359.81;;;12.12;67.81
30516;BME280;17297;54.022;10.760;2024-03-22T04:38:15;101362.31;;;12.14;67.97
30516;BME280;17297;54.022;10.760;2024-03-22T04:40:41;101358.78;;;12.13;67.87
30516;BME280;17297;54.022;10.760;2024-03-22T04:43:06;101356.75;;;12.15;68.07
30516;BME280;17297;54.022;10.760;2024-03-22T04:45:31;101357.56;;;12.16;68.04
30516;BME280;17297;54.022;10.760;2024-03-22T04:47:56;101367.97;;;12.19;67.94
30516;BME280;17297;54.022;10.760;2024-03-22T04:50:22;101356.53;;;12.17;68.04
30516;BME280;17297;54.022;10.760;2024-03-22T04:52:47;101357.19;;;12.19;67.89
30516;BME280;17297;54.022;10.760;2024-03-22T04:55:12;101354.50;;;12.19;68.04
30516;BME280;17297;54.022;10.760;2024-03-22T04:57:38;101348.28;;;12.18;68.00
30516;BME280;17297;54.022;10.760;2024-03-22T05:00:03;101347.91;;;12.21;67.86
30516;BME280;17297;54.022;10.760;2024-03-22T05:02:30;101334.59;;;12.20;67.94
30516;BME280;17297;54.022;10.760;2024-03-22T05:04:55;101336.25;;;12.21;68.01
30516;BME280;17297;54.022;10.760;2024-03-22T05:07:20;101337.09;;;12.21;68.01
30516;BME280;17297;54.022;10.760;2024-03-22T05:09:46;101340.63;;;12.22;68.09
30516;BME280;17297;54.022;10.760;2024-03-22T05:12:11;101331.50;;;12.23;67.99
30516;BME280;17297;54.022;10.760;2024-03-22T05:14:36;101336.91;;;12.23;68.00
30516;BME280;17297;54.022;10.760;2024-03-22T05:17:02;101325.94;;;12.24;68.00
30516;BME280;17297;54.022;10.760;2024-03-22T05:19:27;101322.38;;;12.24;68.13
30516;BME280;17297;54.022;10.760;2024-03-22T05:21:52;101322.19;;;12.25;68.04
30516;BME280;17297;54.022;10.760;2024-03-22T05:24:18;101313.91;;;12.27;68.10
30516;BME280;17297;54.022;10.760;2024-03-22T05:26:43;101313.72;;;12.29;68.15
30516;BME280;17297;54.022;10.760;2024-03-22T05:29:08;101315.59;;;12.28;68.19
30516;BME280;17297;54.022;10.760;2024-03-22T05:31:45;101314.38;;;12.31;68.21
30516;BME280;17297;54.022;10.760;2024-03-22T05:34:11;101304.44;;;12.31;68.21
30516;BME280;17297;54.022;10.760;2024-03-22T05:36:36;101306.09;;;12.32;68.14
30516;BME280;17297;54.022;10.760;2024-03-22T05:39:02;101296.97;;;12.33;68.22
30516;BME280;17297;54.022;10.760;2024-03-22T05:41:27;101298.66;;;12.34;68.26
30516;BME280;17297;54.022;10.760;2024-03-22T05:43:52;101300.31;;;12.35;68.02
30516;BME280;17297;54.022;10.760;2024-03-22T05:46:18;101295.56;;;12.37;68.14
30516;BME280;17297;54.022;10.760;2024-03-22T05:48:43;101292.88;;;12.37;68.20
30516;BME280;17297;54.022;10.760;2024-03-22T05:51:08;101292.66;;;12.39;68.17
30516;BME280;17297;54.022;10.760;2024-03-22T05:53:34;101287.09;;;12.40;68.37
30516;BME280;17297;54.022;10.760;2024-03-22T05:56:00;101293.97;;;12.43;68.26
30516;BME280;17297;54.022;10.760;2024-03-22T05:58:26;101290.25;;;12.44;68.29
30516;BME280;17297;54.022;10.760;2024-03-22T06:00:52;101287.34;;;12.45;68.40
30516;BME280;17297;54.022;10.760;2024-03-22T06:03:18;101282.78;;;12.46;68.34
30516;BME280;17297;54.022;10.760;2024-03-22T06:05:43;101293.38;;;12.47;68.36
30516;BME280;17297;54.022;10.760;2024-03-22T06:08:09;101291.34;;;12.50;68.36
30516;BME280;17297;54.022;10.760;2024-03-22T06:10:34;101289.25;;;12.52;68.51
30516;BME280;17297;54.022;10.760;2024-03-22T06:12:59;101289.25;;;12.52;68.40
30516;BME280;17297;54.022;10.760;2024-03-22T06:15:25;101281.81;;;12.54;68.05
30516;BME280;17297;54.022;10.760;2024-03-22T06:17:50;101283.47;;;12.55;68.33
30516;BME280;17297;54.022;10.760;2024-03-22T06:20:16;101278.75;;;12.57;68.44
30516;BME280;17297;54.022;10.760;2024-03-22T06:22:41;101275.84;;;12.58;68.40
30516;BME280;17297;54.022;10.760;2024-03-22T06:25:07;101271.09;;;12.60;68.44
30516;BME280;17297;54.022;10.760;2024-03-22T06:27:32;101270.03;;;12.61;68.46
30516;BME280;17297;54.022;10.760;2024-03-22T06:29:57;101255.34;;;12.64;68.58
30516;BME280;17297;54.022;10.760;2024-03-22T06:32:22;101255.16;;;12.65;68.41
30516;BME280;17297;54.022;10.760;2024-03-22T06:34:48;101249.53;;;12.67;68.36
30516;BME280;17297;54.022;10.760;2024-03-22T06:37:13;101253.72;;;12.69;68.58
30516;BME280;17297;54.022;10.760;2024-03-22T06:39:38;101248.59;;;12.75;68.51
30516;BME280;17297;54.022;10.760;2024-03-22T06:42:04;101246.34;;;12.78;68.69
30516;BME280;17297;54.022;10.760;2024-03-22T06:44:29;101236.81;;;12.82;68.60
30516;BME280;17297;54.022;10.760;2024-03-22T06:46:55;101232.88;;;12.85;68.48
30516;BME280;17297;54.022;10.760;2024-03-22T06:49:20;101233.31;;;12.88;68.64
30516;BME280;17297;54.022;10.760;2024-03-22T06:51:46;101231.06;;;12.92;68.65
30516;BME280;17297;54.022;10.760;2024-03-22T06:54:12;101210.75;;;12.96;68.54
30516;BME280;17297;54.022;10.760;2024-03-22T06:56:37;101208.47;;;13.00;68.57
30516;BME280;17297;54.022;10.760;2024-03-22T06:59:03;101203.50;;;13.03;68.63
30516;BME280;17297;54.022;10.760;2024-03-22T07:01:28;101195.84;;;13.07;68.53
30516;BME280;17297;54.022;10.760;2024-03-22T07:03:54;101183.81;;;13.09;68.61
30516;BME280;17297;54.022;10.760;2024-03-22T07:06:19;101184.25;;;13.13;68.58
30516;BME280;17297;54.022;10.760;2024-03-22T07:08:45;101186.56;;;13.16;68.48
30516;BME280;17297;54.022;10.760;2024-03-22T07:11:11;101188.22;;;13.17;68.49
30516;BME280;17297;54.022;10.760;2024-03-22T07:13:36;101195.91;;;13.20;68.55
30516;BME280;17297;54.022;10.760;2024-03-22T07:16:03;101184.09;;;13.21;68.55
30516;BME280;17297;54.022;10.760;2024-03-22T07:18:28;101179.31;;;13.23;68.59
30516;BME280;17297;54.022;10.760;2024-03-22T07:20:53;101181.63;;;13.26;68.55
30516;BME280;17297;54.022;10.760;2024-03-22T07:23:19;101173.13;;;13.29;68.54
30516;BME280;17297;54.022;10.760;2024-03-22T07:25:44;101172.75;;;13.32;68.50
30516;BME280;17297;54.022;10.760;2024-03-22T07:28:11;101169.63;;;13.35;68.57
30516;BME280;17297;54.022;10.760;2024-03-22T07:30:36;101161.94;;;13.39;68.58
30516;BME280;17297;54.022;10.760;2024-03-22T07:33:03;101173.41;;;13.41;68.55
30516;BME280;17297;54.022;10.760;2024-03-22T07:35:28;101168.44;;;13.45;68.64
30516;BME280;17297;54.022;10.760;2024-03-22T07:37:53;101167.19;;;13.47;68.50
30516;BME280;17297;54.022;10.760;2024-03-22T07:40:19;101164.09;;;13.50;68.49
30516;BME280;17297;54.022;10.760;2024-03-22T07:42:45;101180.09;;;13.52;68.50
30516;BME280;17297;54.022;10.760;2024-03-22T07:45:10;101176.97;;;13.55;68.61
30516;BME280;17297;54.022;10.760;2024-03-22T07:47:36;101172.44;;;13.55;68.55
30516;BME280;17297;54.022;10.760;2024-03-22T07:50:02;101176.56;;;13.58;68.55
30516;BME280;17297;54.022;10.760;2024-03-22T07:52:28;101186.38;;;13.59;68.59
30516;BME280;17297;54.022;10.760;2024-03-22T07:54:53;101178.06;;;13.60;68.26
30516;BME280;17297;54.022;10.760;2024-03-22T07:57:18;101188.69;;;13.62;68.70
30516;BME280;17297;54.022;10.760;2024-03-22T07:59:45;101191.38;;;13.62;68.51
30516;BME280;17297;54.022;10.760;2024-03-22T08:02:11;101184.09;;;13.62;68.40
30516;BME280;17297;54.022;10.760;2024-03-22T08:04:36;101174.13;;;13.63;68.44
30516;BME280;17297;54.022;10.760;2024-03-22T08:07:02;101178.69;;;13.62;68.47
30516;BME280;17297;54.022;10.760;2024-03-22T08:09:27;101178.69;;;13.62;68.46
30516;BME280;17297;54.022;10.760;2024-03-22T08:11:52;101174.94;;;13.63;68.39
30516;BME280;17297;54.022;10.760;2024-03-22T08:14:18;101173.94;;;13.65;68.43
30516;BME280;17297;54.022;10.760;2024-03-22T08:16:43;101173.31;;;13.69;68.53
30516;BME280;17297;54.022;10.760;2024-03-22T08:19:08;101170.59;;;13.69;68.64
30516;BME280;17297;54.022;10.760;2024-03-22T08:21:34;101169.38;;;13.72;68.53
30516;BME280;17297;54.022;10.760;2024-03-22T08:23:59;101173.53;;;13.74;68.59
30516;BME280;17297;54.022;10.760;2024-03-22T08:26:25;101168.13;;;13.74;68.40
30516;BME280;17297;54.022;10.760;2024-03-22T08:28:50;101156.28;;;13.75;68.42
30516;BME280;17297;54.022;10.760;2024-03-22T08:31:15;101159.63;;;13.77;68.42
30516;BME280;17297;54.022;10.760;2024-03-22T08:33:42;101149.81;;;13.76;68.40
30516;BME280;17297;54.022;10.760;2024-03-22T08:36:07;101139.00;;;13.76;68.47
30516;BME280;17297;54.022;10.760;2024-03-22T08:38:33;101143.38;;;13.77;68.53
30516;BME280;17297;54.022;10.760;2024-03-22T08:40:58;101143.38;;;13.77;68.51
30516;BME280;17297;54.022;10.760;2024-03-22T08:43:26;101134.63;;;13.75;68.33
30516;BME280;17297;54.022;10.760;2024-03-22T08:45:55;101145.22;;;13.77;68.41
30516;BME280;17297;54.022;10.760;2024-03-22T08:48:21;101145.03;;;13.78;68.56
30516;BME280;17297;54.022;10.760;2024-03-22T08:50:46;101142.34;;;13.78;68.45
30516;BME280;17297;54.022;10.760;2024-03-22T08:53:12;101138.81;;;13.78;68.37
30516;BME280;17297;54.022;10.760;2024-03-22T08:55:37;101137.75;;;13.79;68.38
30516;BME280;17297;54.022;10.760;2024-03-22T08:58:03;101136.94;;;13.78;68.35
30516;BME280;17297;54.022;10.760;2024-03-22T09:00:29;101135.47;;;13.76;68.37
30516;BME280;17297;54.022;10.760;2024-03-22T09:02:54;101143.56;;;13.76;68.30
30516;BME280;17297;54.022;10.760;2024-03-22T09:05:19;101127.56;;;13.74;68.35
30516;BME280;17297;54.022;10.760;2024-03-22T09:07:45;101134.00;;;13.73;68.28
30516;BME280;17297;54.022;10.760;2024-03-22T09:10:11;101120.88;;;13.70;68.33
30516;BME280;17297;54.022;10.760;2024-03-22T09:12:37;101128.81;;;13.72;68.44
30516;BME280;17297;54.022;10.760;2024-03-22T09:15:03;101137.09;;;13.70;68.41
30516;BME280;17297;54.022;10.760;2024-03-22T09:17:28;101126.50;;;13.69;68.42
30516;BME280;17297;54.022;10.760;2024-03-22T09:19:54;101131.09;;;13.68;68.53
30516;BME280;17297;54.022;10.760;2024-03-22T09:22:19;101129.41;;;13.67;68.61
30516;BME280;17297;54.022;10.760;2024-03-22T09:24:44;101126.69;;;13.67;68.57
30516;BME280;17297;54.022;10.760;2024-03-22T09:27:10;101121.50;;;13.66;68.68
30516;BME280;17297;54.022;10.760;2024-03-22T09:29:38;101124.22;;;13.66;68.78
30516;BME280;17297;54.022;10.760;2024-03-22T09:32:04;101113.81;;;13.62;68.81
30516;BME280;17297;54.022;10.760;2024-03-22T09:34:29;101113.00;;;13.62;68.94
30516;BME280;17297;54.022;10.760;2024-03-22T09:36:56;101107.59;;;13.62;68.93
30516;BME280;17297;54.022;10.760;2024-03-22T09:39:21;101095.72;;;13.63;69.03
30516;BME280;17297;54.022;10.760;2024-03-22T09:41:47;101101.13;;;13.63;69.02
30516;BME280;17297;54.022;10.760;2024-03-22T09:44:14;101096.34;;;13.65;69.18
30516;BME280;17297;54.022;10.760;2024-03-22T09:46:44;101099.66;;;13.67;69.20
30516;BME280;17297;54.022;10.760;2024-03-22T09:49:10;101087.03;;;13.74;69.36
30516;BME280;17297;54.022;10.760;2024-03-22T09:51:37;101092.00;;;13.77;69.45
30516;BME280;17297;54.022;10.760;2024-03-22T09:54:02;101083.91;;;13.84;69.82
30516;BME280;17297;54.022;10.760;2024-03-22T09:56:30;101084.75;;;13.91;69.54
30516;BME280;17297;54.022;10.760;2024-03-22T09:58:57;101074.97;;;13.97;69.62
30516;BME280;17297;54.022;10.760;2024-03-22T10:01:23;101081.22;;;14.04;69.63
30516;BME280;17297;54.022;10.760;2024-03-22T10:03:51;101082.25;;;14.09;69.65
30516;BME280;17297;54.022;10.760;2024-03-22T10:06:16;101067.06;;;14.15;69.53
30516;BME280;17297;54.022;10.760;2024-03-22T10:08:42;101073.09;;;14.24;69.68
30516;BME280;17297;54.022;10.760;2024-03-22T10:11:08;101069.97;;;14.27;69.58
30516;BME280;17297;54.022;10.760;2024-03-22T10:13:33;101073.94;;;14.31;69.53
30516;BME280;17297;54.022;10.760;2024-03-22T10:15:58;101083.69;;;14.32;69.49
30516;BME280;17297;54.022;10.760;2024-03-22T10:18:23;101077.25;;;14.33;69.55
30516;BME280;17297;54.022;10.760;2024-03-22T10:21:02;101072.03;;;14.31;69.58
30516;BME280;17297;54.022;10.760;2024-03-22T10:23:29;101070.59;;;14.29;69.41
30516;BME280;17297;54.022;10.760;2024-03-22T10:25:56;101074.34;;;14.28;69.39
30516;BME280;17297;54.022;10.760;2024-03-22T10:28:21;101069.97;;;14.27;69.49
30516;BME280;17297;54.022;10.760;2024-03-22T10:30:49;101064.34;;;14.28;69.57
30516;BME280;17297;54.022;10.760;2024-03-22T10:33:15;101074.13;;;14.29;69.50
30516;BME280;17297;54.022;10.760;2024-03-22T10:35:43;101062.28;;;14.30;69.60
30516;BME280;17297;54.022;10.760;2024-03-22T10:38:09;101064.75;;;14.32;69.68
30516;BME280;17297;54.022;10.760;2024-03-22T10:40:39;101049.16;;;14.34;69.63
30516;BME280;17297;54.022;10.760;2024-03-22T10:43:04;101056.22;;;14.35;69.70
30516;BME280;17297;54.022;10.760;2024-03-22T10:45:30;101058.72;;;14.37;69.77
30516;BME280;17297;54.022;10.760;2024-03-22T10:47:56;101051.84;;;14.34;69.72
30516;BME280;17297;54.022;10.760;2024-03-22T10:50:22;101058.50;;;14.31;69.56
30516;BME280;17297;54.022;10.760;2024-03-22T10:53:01;101059.75;;;14.29;69.58
30516;BME280;17297;54.022;10.760;2024-03-22T10:55:40;101054.56;;;14.27;69.65
30516;BME280;17297;54.022;10.760;2024-03-22T10:58:15;101049.34;;;14.26;69.79
30516;BME280;17297;54.022;10.760;2024-03-22T11:00:41;101055.00;;;14.24;69.63
30516;BME280;17297;54.022;10.760;2024-03-22T11:03:08;101057.28;;;14.21;69.62
30516;BME280;17297;54.022;10.760;2024-03-22T11:05:33;101047.50;;;14.20;69.73
30516;BME280;17297;54.022;10.760;2024-03-22T11:08:05;101036.06;;;14.18;69.81
30516;BME280;17297;54.022;10.760;2024-03-22T11:10:33;101045.19;;;14.17;69.92
30516;BME280;17297;54.022;10.760;2024-03-22T11:13:06;101030.84;;;14.16;69.98
30516;BME280;17297;54.022;10.760;2024-03-22T11:15:32;101038.78;;;14.18;69.87
30516;BME280;17297;54.022;10.760;2024-03-22T11:17:58;101039.78;;;14.17;69.87
30516;BME280;17297;54.022;10.760;2024-03-22T11:20:24;101035.22;;;14.17;69.87
30516;BME280;17297;54.022;10.760;2024-03-22T11:22:53;101035.63;;;14.14;69.88
30516;BME280;17297;54.022;10.760;2024-03-22T11:25:19;101032.09;;;14.14;69.93
30516;BME280;17297;54.022;10.760;2024-03-22T11:27:45;101030.63;;;14.11;69.79
30516;BME280;17297;54.022;10.760;2024-03-22T11:30:10;101030.22;;;14.07;69.83
30516;BME280;17297;54.022;10.760;2024-03-22T11:32:36;101026.91;;;14.05;69.91
30516;BME280;17297;54.022;10.760;2024-03-22T11:35:12;101029.00;;;14.03;69.79
30516;BME280;17297;54.022;10.760;2024-03-22T11:37:41;101023.16;;;14.00;69.77
30516;BME280;17297;54.022;10.760;2024-03-22T11:40:11;101025.25;;;13.98;69.77
30516;BME280;17297;54.022;10.760;2024-03-22T11:42:41;101021.06;;;13.95;69.93
30516;BME280;17297;54.022;10.760;2024-03-22T11:45:08;101014.22;;;13.93;69.77
30516;BME280;17297;54.022;10.760;2024-03-22T11:47:35;101026.06;;;13.92;69.75
30516;BME280;17297;54.022;10.760;2024-03-22T11:50:01;101023.59;;;13.90;70.06
30516;BME280;17297;54.022;10.760;2024-03-22T11:52:27;101025.66;;;13.88;69.86
30516;BME280;17297;54.022;10.760;2024-03-22T11:54:52;101034.00;;;13.86;69.97
30516;BME280;17297;54.022;10.760;2024-03-22T11:57:18;101029.59;;;13.85;69.97
30516;BME280;17297;54.022;10.760;2024-03-22T11:59:44;101028.16;;;13.83;69.85
30516;BME280;17297;54.022;10.760;2024-03-22T12:02:10;101015.66;;;13.82;69.99
30516;BME280;17297;54.022;10.760;2024-03-22T12:04:35;101030.25;;;13.81;70.01
30516;BME280;17297;54.022;10.760;2024-03-22T12:07:00;101024.84;;;13.81;69.69
30516;BME280;17297;54.022;10.760;2024-03-22T12:09:26;101018.59;;;13.80;69.93
30516;BME280;17297;54.022;10.760;2024-03-22T12:11:51;101016.09;;;13.79;69.92
30516;BME280;17297;54.022;10.760;2024-03-22T12:14:19;101014.44;;;13.78;70.18
30516;BME280;17297;54.022;10.760;2024-03-22T12:16:45;101018.59;;;13.80;70.17
30516;BME280;17297;54.022;10.760;2024-03-22T12:19:10;101000.50;;;13.81;70.11
30516;BME280;17297;54.022;10.760;2024-03-22T12:21:36;100998.63;;;13.81;70.13
30516;BME280;17297;54.022;10.760;2024-03-22T12:24:01;101022.72;;;13.83;70.25
30516;BME280;17297;54.022;10.760;2024-03-22T12:26:26;101014.84;;;13.81;70.18
30516;BME280;17297;54.022;10.760;2024-03-22T12:28:52;101014.63;;;13.83;70.10
30516;BME280;17297;54.022;10.760;2024-03-22T12:31:17;101011.09;;;13.82;70.09
30516;BME280;17297;54.022;10.760;2024-03-22T12:33:44;101006.72;;;13.81;70.14
30516;BME280;17297;54.022;10.760;2024-03-22T12:36:09;100996.75;;;13.82;70.12